Time;durP1;ratioP1;P1;durP2;ratioP2;P2;SDS_P1;SDS_P2;PMS_P1;PMS_P2;Temp;Humidity;BMP_temperature;BMP_pressure;BME280_temperature;BME280_humidity;BME280_pressure;Samples;Min_cycle;Max_cycle;Signal;HPM_P1;HPM_P2
2023/11/20 00:01:37;;;;;;;3.80;2.60;;;;;;;10.38;100.00;100049.06;5104501;28;20413;-66
2023/11/20 00:04:06;;;;;;;3.90;3.40;;;;;;;10.41;100.00;100038.63;5095094;28;20424;-66
2023/11/20 00:06:35;;;;;;;4.50;2.80;;;;;;;10.40;100.00;100047.81;5099717;28;20871;-66
2023/11/20 00:09:07;;;;;;;7.47;3.00;;;;;;;10.41;100.00;100041.31;5103820;28;20503;-65
2023/11/20 00:11:36;;;;;;;6.90;2.30;;;;;;;10.33;100.00;100046.19;5095739;28;20920;-67
2023/11/20 00:14:05;;;;;;;3.30;2.57;;;;;;;10.25;100.00;100032.94;5094852;28;20452;-67
2023/11/20 00:16:34;;;;;;;6.80;2.00;;;;;;;10.23;100.00;100040.44;5095518;28;20406;-68
2023/11/20 00:19:03;;;;;;;5.23;2.43;;;;;;;10.02;100.00;100037.03;5102451;28;20421;-68
2023/11/20 00:21:54;;;;;;;5.13;3.00;;;;;;;10.12;100.00;100033.03;5099789;28;20451;-66
2023/11/20 00:24:24;;;;;;;2.90;1.60;;;;;;;10.13;100.00;100035.50;5096559;28;20439;-67
2023/11/20 00:26:53;;;;;;;9.73;2.30;;;;;;;10.09;100.00;100033.47;5096510;28;20432;-67
2023/11/20 00:29:22;;;;;;;4.20;2.07;;;;;;;10.10;100.00;100037.81;5093347;28;20432;-66
2023/11/20 00:31:50;;;;;;;2.17;1.50;;;;;;;10.10;100.00;100040.53;5070816;28;20405;-67
2023/11/20 00:34:19;;;;;;;3.50;1.67;;;;;;;10.14;100.00;100036.34;5114621;28;20978;-65
2023/11/20 00:36:48;;;;;;;2.97;2.50;;;;;;;10.06;100.00;100033.91;5102420;28;20403;-66
2023/11/20 00:39:19;;;;;;;2.13;1.73;;;;;;;9.94;100.00;100037.31;5071006;28;20441;-67
2023/11/20 00:41:49;;;;;;;1.60;1.40;;;;;;;9.88;100.00;100037.34;5097291;28;20539;-67
2023/11/20 00:44:18;;;;;;;3.07;1.33;;;;;;;9.83;100.00;100029.06;5080915;28;20452;-67
2023/11/20 00:46:47;;;;;;;1.83;1.47;;;;;;;9.71;100.00;100025.41;5096271;28;20400;-67
2023/11/20 00:49:16;;;;;;;7.47;1.83;;;;;;;9.67;100.00;100026.91;5104850;28;20435;-67
2023/11/20 00:51:46;;;;;;;2.83;1.13;;;;;;;9.64;100.00;100025.44;5090713;28;20505;-66
2023/11/20 00:54:15;;;;;;;1.50;1.40;;;;;;;9.60;100.00;100025.06;5097628;28;20419;-66
2023/11/20 00:56:44;;;;;;;1.33;1.23;;;;;;;9.70;100.00;100030.00;5069642;28;20442;-67
2023/11/20 00:59:14;;;;;;;5.37;2.30;;;;;;;9.77;100.00;100024.56;5096333;28;20486;-67
2023/11/20 01:01:43;;;;;;;4.40;2.07;;;;;;;9.72;100.00;100022.50;5093710;28;20435;-66
2023/11/20 01:04:12;;;;;;;7.47;2.07;;;;;;;9.80;100.00;100022.22;5105558;28;20489;-66
2023/11/20 01:06:41;;;;;;;2.83;2.33;;;;;;;9.84;100.00;100014.50;5103250;28;20449;-67
2023/11/20 01:09:11;;;;;;;4.70;1.73;;;;;;;9.89;100.00;100018.22;5096906;28;20430;-66
2023/11/20 01:11:44;;;;;;;5.50;1.47;;;;;;;9.81;100.00;100015.78;5101506;28;20449;-67
2023/11/20 01:14:14;;;;;;;2.97;1.50;;;;;;;9.95;100.00;100017.34;5079217;28;20465;-66
2023/11/20 01:16:44;;;;;;;5.03;2.40;;;;;;;9.87;100.00;100025.72;5095348;28;20395;-67
2023/11/20 01:19:12;;;;;;;3.60;1.80;;;;;;;9.85;100.00;100022.41;5090588;28;20429;-66
2023/11/20 01:21:43;;;;;;;2.70;2.00;;;;;;;10.01;100.00;100026.47;5094870;28;20931;-65
2023/11/20 01:24:13;;;;;;;1.50;1.03;;;;;;;10.04;100.00;100026.84;5098607;28;20481;-66
2023/11/20 01:26:42;;;;;;;9.03;1.57;;;;;;;10.20;100.00;100021.97;5103172;28;20436;-66
2023/11/20 01:29:10;;;;;;;2.70;1.27;;;;;;;10.05;100.00;100030.38;5073730;28;20447;-66
2023/11/20 01:31:41;;;;;;;1.40;1.20;;;;;;;10.11;100.00;100031.38;5069513;28;20449;-65
2023/11/20 01:34:11;;;;;;;2.20;1.30;;;;;;;10.02;100.00;100028.91;5078787;28;20520;-66
2023/11/20 01:36:40;;;;;;;3.13;1.60;;;;;;;10.11;100.00;100026.81;5075987;28;20420;-69
2023/11/20 01:39:09;;;;;;;1.83;1.33;;;;;;;10.02;100.00;100018.09;5095874;28;20400;-64
2023/11/20 01:41:38;;;;;;;1.10;0.80;;;;;;;10.09;100.00;100017.25;5077970;28;20424;-66
2023/11/20 01:44:07;;;;;;;4.90;1.83;;;;;;;10.13;100.00;100021.16;5098010;28;20522;-66
2023/11/20 01:46:37;;;;;;;8.00;1.70;;;;;;;10.10;100.00;100013.50;5102022;28;20412;-66
2023/11/20 01:49:08;;;;;;;4.00;1.60;;;;;;;10.12;100.00;100017.63;5077625;28;20456;-66
2023/11/20 01:51:37;;;;;;;1.67;1.57;;;;;;;10.09;100.00;100014.53;5093181;28;20495;-67
2023/11/20 01:54:10;;;;;;;3.70;2.07;;;;;;;10.09;100.00;100018.06;5084750;28;20460;-66
2023/11/20 01:56:40;;;;;;;3.90;1.50;;;;;;;10.08;100.00;100016.41;5090792;28;20898;-67
2023/11/20 01:59:10;;;;;;;2.97;1.77;;;;;;;10.09;100.00;100014.53;5074696;28;20440;-65
2023/11/20 02:01:39;;;;;;;2.97;1.17;;;;;;;10.14;100.00;100006.59;5094045;28;20882;-66
2023/11/20 02:04:11;;;;;;;4.37;1.63;;;;;;;10.22;100.00;100006.34;5075395;28;20439;-66
2023/11/20 02:06:40;;;;;;;5.83;1.40;;;;;;;10.11;100.00;100015.16;5092646;28;20418;-67
2023/11/20 02:09:10;;;;;;;4.40;1.40;;;;;;;9.98;100.00;100006.09;5095940;28;20776;-67
2023/11/20 02:11:39;;;;;;;2.40;1.20;;;;;;;10.14;100.00;100010.13;5094518;28;20436;-66
2023/11/20 02:14:08;;;;;;;3.40;1.57;;;;;;;10.08;100.00;99999.34;5073688;28;20824;-65
2023/11/20 02:16:37;;;;;;;6.70;1.30;;;;;;;10.25;100.00;99997.81;5092412;28;20460;-65
2023/11/20 02:19:16;;;;;;;1.50;1.13;;;;;;;10.13;100.00;99996.81;5075717;28;20449;-66
2023/11/20 02:21:45;;;;;;;1.60;1.07;;;;;;;10.09;100.00;99990.22;5085574;28;20448;-66
2023/11/20 02:24:15;;;;;;;1.70;1.27;;;;;;;10.19;100.00;99991.41;5072623;28;20465;-66
2023/11/20 02:27:00;;;;;;;2.40;0.90;;;;;;;10.22;100.00;99979.31;5091018;28;20392;-66
2023/11/20 02:29:49;;;;;;;5.57;1.93;;;;;;;10.09;100.00;99980.22;5093241;28;20388;-64
2023/11/20 02:32:18;;;;;;;4.47;1.07;;;;;;;10.13;100.00;99981.44;5090932;28;20421;-62
2023/11/20 02:34:47;;;;;;;2.40;1.60;;;;;;;10.17;100.00;99979.13;5103553;28;20550;-65
2023/11/20 02:37:16;;;;;;;3.43;0.90;;;;;;;10.17;100.00;99981.84;5092615;28;20495;-66
2023/11/20 02:39:54;;;;;;;1.83;1.27;;;;;;;10.22;100.00;99976.59;5075109;28;20437;-65
2023/11/20 02:42:23;;;;;;;1.97;1.60;;;;;;;10.24;100.00;99975.34;5094900;28;20506;-66
2023/11/20 02:44:53;;;;;;;2.93;1.13;;;;;;;10.21;100.00;99969.56;5075148;28;20463;-66
2023/11/20 02:47:23;;;;;;;2.97;1.20;;;;;;;10.08;100.00;99967.75;5093833;28;20790;-66
2023/11/20 02:49:52;;;;;;;4.90;1.23;;;;;;;10.08;100.00;99967.75;5070620;28;20472;-66
2023/11/20 02:52:21;;;;;;;1.13;1.00;;;;;;;10.23;100.00;99964.75;5100321;28;20426;-66
2023/11/20 02:54:50;;;;;;;3.33;1.50;;;;;;;10.12;100.00;99963.56;5099941;28;20454;-66
2023/11/20 02:57:19;;;;;;;5.03;1.07;;;;;;;10.08;100.00;99962.34;5076877;28;20445;-65
2023/11/20 02:59:48;;;;;;;4.30;0.93;;;;;;;10.19;100.00;99960.84;5089509;28;20572;-65
2023/11/20 03:02:19;;;;;;;1.20;0.80;;;;;;;10.18;100.00;99960.00;5094649;28;20453;-67
2023/11/20 03:04:48;;;;;;;1.10;0.80;;;;;;;10.17;100.00;99958.34;5069468;28;20558;-66
2023/11/20 03:07:18;;;;;;;0.83;0.57;;;;;;;10.19;100.00;99958.13;5087290;28;20404;-66
2023/11/20 03:09:47;;;;;;;3.13;0.80;;;;;;;10.12;100.00;99960.06;5079413;28;20906;-67
2023/11/20 03:12:17;;;;;;;1.67;0.80;;;;;;;10.16;100.00;99955.88;5092853;28;20487;-67
2023/11/20 03:14:46;;;;;;;1.20;0.60;;;;;;;10.13;100.00;99948.16;5092320;28;20419;-67
2023/11/20 03:17:14;;;;;;;1.20;0.80;;;;;;;10.15;100.00;99951.47;5096213;28;20433;-66
2023/11/20 03:19:45;;;;;;;1.90;1.00;;;;;;;10.12;100.00;99951.94;5089348;28;20947;-66
2023/11/20 03:22:17;;;;;;;1.53;0.93;;;;;;;10.06;100.00;99953.66;5086743;28;20428;-68
2023/11/20 03:24:47;;;;;;;3.97;1.00;;;;;;;10.00;100.00;99949.13;5072729;28;20439;-67
2023/11/20 03:27:15;;;;;;;1.00;0.70;;;;;;;10.06;100.00;99953.66;5076960;28;20449;-68
2023/11/20 03:29:44;;;;;;;1.90;0.83;;;;;;;10.16;100.00;99953.19;5060877;28;20434;-67
2023/11/20 03:32:13;;;;;;;0.97;0.70;;;;;;;10.00;100.00;99947.25;5093477;28;20467;-66
2023/11/20 03:34:43;;;;;;;1.57;1.27;;;;;;;10.08;100.00;99948.00;5091342;28;20963;-66
2023/11/20 03:37:12;;;;;;;1.53;0.97;;;;;;;10.20;100.00;99948.97;5082861;28;20420;-67
2023/11/20 03:39:41;;;;;;;1.63;1.27;;;;;;;10.08;100.00;99945.28;5087953;28;20832;-67
2023/11/20 03:42:10;;;;;;;2.77;0.93;;;;;;;10.09;100.00;99942.38;5094411;28;20475;-66
2023/11/20 03:44:39;;;;;;;1.10;0.70;;;;;;;10.09;100.00;99938.84;5098480;28;20469;-67
2023/11/20 03:47:08;;;;;;;1.00;0.80;;;;;;;9.90;100.00;99938.81;5086156;28;20401;-67
2023/11/20 03:49:37;;;;;;;3.63;0.90;;;;;;;9.99;100.00;99940.19;5067131;28;20438;-67
2023/11/20 03:52:07;;;;;;;2.90;2.70;;;;;;;10.04;100.00;99934.94;5076570;28;20831;-67
2023/11/20 03:54:36;;;;;;;3.17;1.10;;;;;;;10.00;100.00;99939.13;5082569;28;20510;-67
2023/11/20 03:57:05;;;;;;;1.80;0.90;;;;;;;9.98;100.00;99930.41;5072668;28;20536;-67
2023/11/20 03:59:34;;;;;;;1.77;0.93;;;;;;;10.21;100.00;99929.84;5089724;28;20558;-66
2023/11/20 04:02:03;;;;;;;1.10;0.73;;;;;;;10.17;100.00;99931.31;5069404;28;20438;-67
2023/11/20 04:04:32;;;;;;;1.60;0.73;;;;;;;10.21;100.00;99929.00;5091671;28;20496;-68
2023/11/20 04:07:01;;;;;;;1.33;0.90;;;;;;;10.03;100.00;99922.47;5090606;28;20426;-66
2023/11/20 04:09:31;;;;;;;1.23;1.00;;;;;;;9.93;100.00;99916.72;5087121;28;20452;-66
2023/11/20 04:12:00;;;;;;;0.90;0.70;;;;;;;10.00;100.00;99916.69;5087314;28;21063;-67
2023/11/20 04:14:29;;;;;;;1.83;0.90;;;;;;;9.99;100.00;99915.84;5080304;28;21006;-66
2023/11/20 04:16:59;;;;;;;2.00;0.87;;;;;;;9.96;100.00;99918.19;5075409;28;20441;-67
2023/11/20 04:19:28;;;;;;;1.10;0.70;;;;;;;10.00;100.00;99922.09;5088221;28;20944;-67
2023/11/20 04:21:57;;;;;;;3.03;1.73;;;;;;;10.01;100.00;99919.19;5093164;28;20473;-66
2023/11/20 04:24:26;;;;;;;2.50;0.80;;;;;;;9.96;100.00;99910.06;5076777;28;21036;-66
2023/11/20 04:26:56;;;;;;;1.83;1.20;;;;;;;10.04;100.00;99912.50;5092099;28;20474;-66
2023/11/20 04:29:25;;;;;;;2.20;1.40;;;;;;;10.14;100.00;99906.56;5093620;28;20898;-67
2023/11/20 04:31:54;;;;;;;1.63;1.10;;;;;;;10.16;100.00;99904.50;5088739;28;20799;-65
2023/11/20 04:34:23;;;;;;;1.50;1.07;;;;;;;10.10;100.00;99906.19;5095512;28;20431;-67
2023/11/20 04:36:52;;;;;;;1.87;1.10;;;;;;;10.08;100.00;99897.47;5073159;28;20441;-67
2023/11/20 04:39:21;;;;;;;1.10;0.97;;;;;;;10.07;100.00;99900.41;5087178;28;20435;-66
2023/11/20 04:41:50;;;;;;;1.00;0.90;;;;;;;10.02;100.00;99899.19;5091721;28;20464;-67
2023/11/20 04:44:20;;;;;;;3.73;1.33;;;;;;;9.99;100.00;99902.34;5089100;28;20425;-66
2023/11/20 04:46:49;;;;;;;1.10;0.87;;;;;;;10.02;100.00;99904.59;5096659;28;20408;-66
2023/11/20 04:49:19;;;;;;;7.30;1.17;;;;;;;10.06;100.00;99890.66;5095604;28;20781;-68
2023/11/20 04:51:48;;;;;;;1.70;1.30;;;;;;;10.01;100.00;99894.84;5097136;28;20938;-66
2023/11/20 04:54:18;;;;;;;1.57;1.23;;;;;;;9.93;100.00;99880.78;5086298;28;20499;-65
2023/11/20 04:56:48;;;;;;;1.70;0.93;;;;;;;9.86;100.00;99880.03;5094056;28;20826;-65
2023/11/20 04:59:16;;;;;;;1.77;0.87;;;;;;;9.81;100.00;99879.88;5101136;28;20433;-65
2023/11/20 05:01:47;;;;;;;2.83;1.50;;;;;;;9.68;100.00;99870.00;5091352;28;20393;-65
2023/11/20 05:04:16;;;;;;;1.40;1.00;;;;;;;9.79;100.00;99871.97;5098799;28;20448;-66
2023/11/20 05:06:45;;;;;;;3.77;0.90;;;;;;;9.66;100.00;99871.25;5098289;28;20951;-66
2023/11/20 05:09:16;;;;;;;1.87;1.20;;;;;;;9.70;100.00;99876.00;5099888;28;20856;-67
2023/11/20 05:11:46;;;;;;;3.43;1.17;;;;;;;9.57;100.00;99868.84;5100655;28;20522;-65
2023/11/20 05:14:16;;;;;;;2.00;1.00;;;;;;;9.65;100.00;99875.00;5090252;28;21006;-65
2023/11/20 05:16:48;;;;;;;1.00;0.80;;;;;;;9.78;100.00;99883.03;5094246;28;20771;-66
2023/11/20 05:19:17;;;;;;;1.47;1.20;;;;;;;9.68;100.00;99885.38;5096277;28;20504;-65
2023/11/20 05:21:47;;;;;;;1.30;0.80;;;;;;;9.75;100.00;99881.56;5107983;28;20490;-67
2023/11/20 05:24:18;;;;;;;5.63;1.20;;;;;;;9.80;100.00;99884.44;5094507;28;20434;-66
2023/11/20 05:26:47;;;;;;;3.87;1.03;;;;;;;9.85;100.00;99890.00;5096561;28;20989;-66
2023/11/20 05:29:16;;;;;;;1.60;1.20;;;;;;;9.79;100.00;99882.78;5094625;28;20437;-67
2023/11/20 05:31:47;;;;;;;2.87;1.47;;;;;;;9.88;100.00;99886.00;5091060;28;20468;-67
2023/11/20 05:34:16;;;;;;;1.30;1.00;;;;;;;9.89;100.00;99885.81;5096890;28;20427;-67
2023/11/20 05:36:45;;;;;;;1.50;1.20;;;;;;;9.83;100.00;99883.97;5079729;28;20537;-66
2023/11/20 05:39:17;;;;;;;1.83;1.30;;;;;;;9.91;100.00;99891.81;5099207;28;20495;-66
2023/11/20 05:41:46;;;;;;;1.80;1.10;;;;;;;9.90;100.00;99883.94;5094137;28;20433;-67
2023/11/20 05:44:15;;;;;;;4.57;1.40;;;;;;;9.78;100.00;99880.31;5092324;28;20428;-65
2023/11/20 05:46:46;;;;;;;1.83;1.40;;;;;;;9.86;100.00;99888.13;5090800;28;20422;-66
2023/11/20 05:49:15;;;;;;;1.20;0.90;;;;;;;9.94;100.00;99890.53;5108392;28;20405;-66
2023/11/20 05:51:43;;;;;;;2.77;1.10;;;;;;;9.87;100.00;99885.22;5102265;28;20996;-66
2023/11/20 05:54:12;;;;;;;5.43;1.70;;;;;;;9.82;100.00;99887.75;5099870;28;20431;-67
2023/11/20 05:56:41;;;;;;;4.90;1.40;;;;;;;9.73;100.00;99883.66;5093332;28;20423;-66
2023/11/20 05:59:10;;;;;;;1.30;1.20;;;;;;;9.80;100.00;99889.84;5104655;28;20512;-66
2023/11/20 06:01:40;;;;;;;1.67;0.87;;;;;;;10.01;100.00;99894.84;5106666;28;20395;-66
2023/11/20 06:04:12;;;;;;;2.33;2.03;;;;;;;9.92;100.00;99893.47;5086453;28;20462;-66
2023/11/20 06:06:41;;;;;;;2.20;1.47;;;;;;;9.91;100.00;99897.22;5093563;28;20421;-67
2023/11/20 06:09:11;;;;;;;3.73;2.43;;;;;;;9.86;100.00;99893.53;5096495;28;20765;-68
2023/11/20 06:11:43;;;;;;;1.67;1.53;;;;;;;9.98;100.00;99892.56;5096860;28;20543;-66
2023/11/20 06:14:12;;;;;;;5.03;1.63;;;;;;;10.30;100.00;99900.63;5101701;28;20445;-67
2023/11/20 06:16:43;;;;;;;1.87;1.33;;;;;;;10.31;100.00;99903.09;5103727;28;20421;-68
2023/11/20 06:19:13;;;;;;;1.83;1.57;;;;;;;10.34;100.00;99902.66;5089271;28;20400;-66
2023/11/20 06:21:46;;;;;;;2.10;1.53;;;;;;;10.22;100.00;99898.19;5095418;28;20537;-67
2023/11/20 06:24:17;;;;;;;2.73;1.53;;;;;;;10.17;100.00;99906.16;5092151;28;20535;-65
2023/11/20 06:26:45;;;;;;;1.77;1.40;;;;;;;10.09;100.00;99903.72;5094879;28;20483;-66
2023/11/20 06:29:15;;;;;;;1.50;1.00;;;;;;;10.12;100.00;99908.69;5090435;28;20512;-66
2023/11/20 06:31:44;;;;;;;1.63;1.30;;;;;;;10.34;100.00;99915.34;5093853;28;20879;-66
2023/11/20 06:34:14;;;;;;;2.17;1.97;;;;;;;10.20;100.00;99917.34;5090429;28;21511;-66
2023/11/20 06:36:43;;;;;;;2.17;1.70;;;;;;;10.20;100.00;99919.22;5087644;28;20892;-66
2023/11/20 06:39:12;;;;;;;1.97;1.30;;;;;;;10.30;100.00;99922.25;5075597;28;20811;-66
2023/11/20 06:41:42;;;;;;;4.40;1.70;;;;;;;10.34;100.00;99924.28;5095096;28;20421;-66
2023/11/20 06:44:11;;;;;;;2.03;1.23;;;;;;;10.33;100.00;99924.50;5102050;28;20431;-67
2023/11/20 06:46:40;;;;;;;8.27;3.93;;;;;;;10.41;100.00;99929.59;5087666;28;20777;-65
2023/11/20 06:49:09;;;;;;;2.07;1.10;;;;;;;10.49;100.00;99931.19;5091646;28;20447;-66
2023/11/20 06:51:39;;;;;;;2.10;1.50;;;;;;;10.43;100.00;99941.03;5076069;28;20457;-67
2023/11/20 06:54:08;;;;;;;2.30;1.57;;;;;;;10.41;100.00;99937.72;5083829;28;20966;-66
2023/11/20 06:56:37;;;;;;;1.70;1.33;;;;;;;10.44;100.00;99937.28;5090647;28;20397;-67
2023/11/20 06:59:06;;;;;;;1.93;1.10;;;;;;;10.25;100.00;99941.03;5092381;28;20502;-66
2023/11/20 07:01:35;;;;;;;2.50;1.43;;;;;;;10.26;100.00;99943.47;5096715;28;20504;-66
2023/11/20 07:04:04;;;;;;;1.93;1.73;;;;;;;10.32;100.00;99941.75;5092758;28;20747;-66
2023/11/20 07:06:33;;;;;;;3.70;2.37;;;;;;;10.34;100.00;99937.81;5091710;28;20985;-66
2023/11/20 07:09:12;;;;;;;3.93;1.47;;;;;;;10.42;100.00;99942.09;5090425;28;20400;-66
2023/11/20 07:11:41;;;;;;;2.03;1.83;;;;;;;10.53;100.00;99944.06;5086261;28;20396;-67
2023/11/20 07:14:11;;;;;;;1.80;1.57;;;;;;;10.45;100.00;99947.06;5092621;28;20454;-66
2023/11/20 07:16:42;;;;;;;4.63;2.30;;;;;;;10.51;100.00;99934.50;5094794;28;20428;-65
2023/11/20 07:19:12;;;;;;;2.23;1.40;;;;;;;10.35;100.00;99946.75;5086984;28;20407;-66
2023/11/20 07:21:43;;;;;;;3.10;1.63;;;;;;;10.43;100.00;99949.16;5098475;28;20516;-69
2023/11/20 07:24:14;;;;;;;3.40;1.23;;;;;;;10.47;100.00;99950.34;5089038;28;20447;-69
2023/11/20 07:26:43;;;;;;;2.03;1.43;;;;;;;10.38;100.00;99944.41;5096150;28;20807;-68
2023/11/20 07:29:13;;;;;;;4.50;2.20;;;;;;;10.30;100.00;99946.59;5090476;28;20475;-67
2023/11/20 07:31:42;;;;;;;3.70;1.63;;;;;;;10.30;100.00;99955.53;5092785;28;20434;-67
2023/11/20 07:34:11;;;;;;;3.00;2.10;;;;;;;10.30;100.00;99952.00;5101778;28;20514;-67
2023/11/20 07:36:40;;;;;;;1.80;1.43;;;;;;;10.34;100.00;99945.09;5092039;28;20413;-69
2023/11/20 07:39:09;;;;;;;1.87;1.07;;;;;;;10.39;100.00;99948.78;5093071;28;20454;-69
2023/11/20 07:41:40;;;;;;;2.70;2.10;;;;;;;10.63;100.00;99949.78;5094105;28;20454;-69
2023/11/20 07:44:08;;;;;;;2.80;2.00;;;;;;;10.54;100.00;99951.13;5067874;28;20984;-70
2023/11/20 07:46:38;;;;;;;2.13;1.83;;;;;;;10.50;100.00;99949.91;5110308;28;20407;-69
2023/11/20 07:49:09;;;;;;;3.20;1.63;;;;;;;10.51;100.00;99951.56;5091944;28;20416;-68
2023/11/20 07:51:38;;;;;;;2.90;1.70;;;;;;;10.60;100.00;99952.09;5089908;28;20471;-69
2023/11/20 07:54:08;;;;;;;2.73;1.70;;;;;;;10.71;100.00;99952.16;5084918;28;21021;-68
2023/11/20 07:56:37;;;;;;;2.20;1.70;;;;;;;10.88;100.00;99961.34;5097854;28;20490;-69
2023/11/20 07:59:07;;;;;;;2.13;1.93;;;;;;;10.82;100.00;99964.94;5084570;28;20450;-68
2023/11/20 08:01:37;;;;;;;2.17;1.87;;;;;;;10.75;100.00;99964.19;5083320;28;20843;-68
2023/11/20 08:04:08;;;;;;;2.30;1.73;;;;;;;10.69;100.00;99970.53;5097331;28;20422;-68
2023/11/20 08:06:37;;;;;;;3.30;2.00;;;;;;;10.73;100.00;99968.19;5097263;28;20447;-69
2023/11/20 08:09:07;;;;;;;2.83;1.53;;;;;;;10.80;100.00;99977.88;5086757;28;20777;-69
2023/11/20 08:11:36;;;;;;;3.40;2.03;;;;;;;10.69;100.00;99975.94;5088198;28;20740;-68
2023/11/20 08:14:07;;;;;;;3.90;2.80;;;;;;;10.60;100.00;99971.84;5093814;28;20458;-68
2023/11/20 08:16:37;;;;;;;2.57;1.87;;;;;;;10.56;100.00;99975.22;5087975;28;20437;-68
2023/11/20 08:19:06;;;;;;;3.00;2.10;;;;;;;10.70;100.00;99977.56;5088759;28;20429;-67
2023/11/20 08:21:35;;;;;;;2.00;1.43;;;;;;;10.56;100.00;99976.06;5089133;28;20389;-68
2023/11/20 08:24:07;;;;;;;2.70;1.67;;;;;;;10.64;100.00;99980.34;5090959;28;20420;-67
2023/11/20 08:26:36;;;;;;;2.50;1.97;;;;;;;10.79;100.00;99981.66;5071465;28;20814;-68
2023/11/20 08:29:07;;;;;;;2.97;2.00;;;;;;;10.71;100.00;99976.53;5092537;28;20433;-69
2023/11/20 08:31:37;;;;;;;3.27;2.63;;;;;;;10.87;100.00;99983.22;5087461;28;20806;-69
2023/11/20 08:34:07;;;;;;;4.40;2.00;;;;;;;10.81;100.00;99974.13;5099572;28;20447;-68
2023/11/20 08:36:36;;;;;;;8.13;4.83;;;;;;;11.02;100.00;99980.13;5095151;28;20415;-67
2023/11/20 08:39:11;;;;;;;5.60;2.97;;;;;;;10.95;100.00;99987.47;5093227;28;20808;-69
2023/11/20 08:41:40;;;;;;;8.50;4.47;;;;;;;10.92;100.00;99979.81;5092960;28;20444;-69
2023/11/20 08:44:11;;;;;;;6.07;4.27;;;;;;;11.17;100.00;99988.69;5094108;28;20451;-69
2023/11/20 08:46:40;;;;;;;11.80;6.33;;;;;;;11.40;100.00;99991.50;5093342;28;20396;-69
2023/11/20 08:49:09;;;;;;;7.27;4.73;;;;;;;11.52;100.00;99992.34;5095003;28;20857;-69
2023/11/20 08:51:38;;;;;;;7.80;4.40;;;;;;;11.46;100.00;99990.59;5087886;28;20425;-68
2023/11/20 08:54:14;;;;;;;3.20;2.70;;;;;;;11.57;100.00;99988.97;5095973;28;20739;-69
2023/11/20 08:56:45;;;;;;;4.00;2.27;;;;;;;11.42;100.00;99992.09;5098035;28;20400;-69
2023/11/20 08:59:15;;;;;;;4.60;2.03;;;;;;;11.53;100.00;99988.59;5093428;28;20413;-69
2023/11/20 09:01:45;;;;;;;9.23;2.40;;;;;;;11.51;100.00;99996.16;5093689;28;20408;-69
2023/11/20 09:04:14;;;;;;;4.37;2.77;;;;;;;11.66;100.00;99993.84;5090048;28;20689;-68
2023/11/20 09:06:43;;;;;;;2.50;1.87;;;;;;;11.47;100.00;99989.53;5090860;28;20412;-67
2023/11/20 09:09:13;;;;;;;2.20;1.40;;;;;;;11.29;100.00;100001.22;5096210;28;20471;-69
2023/11/20 09:11:42;;;;;;;4.13;2.00;;;;;;;11.10;100.00;99985.22;5094127;28;20441;-70
2023/11/20 09:14:12;;;;;;;2.77;1.50;;;;;;;11.03;100.00;99988.03;5086248;28;20505;-68
2023/11/20 09:16:42;;;;;;;1.77;1.33;;;;;;;11.20;100.00;99990.94;5085825;28;20408;-69
2023/11/20 09:19:12;;;;;;;2.30;1.30;;;;;;;11.11;100.00;99989.59;5094954;28;20479;-70
2023/11/20 09:21:41;;;;;;;4.50;2.00;;;;;;;11.04;100.00;99995.06;5092615;28;20490;-68
2023/11/20 09:24:10;;;;;;;3.53;2.40;;;;;;;11.08;100.00;100000.88;5095800;28;20431;-67
2023/11/20 09:26:41;;;;;;;6.63;1.80;;;;;;;11.24;100.00;100002.94;5092360;28;20443;-68
2023/11/20 09:29:11;;;;;;;1.87;0.97;;;;;;;10.99;100.00;99999.53;5093033;28;20512;-70
2023/11/20 09:31:42;;;;;;;2.77;2.10;;;;;;;10.98;100.00;99995.16;5094847;28;20419;-67
2023/11/20 09:34:12;;;;;;;2.33;1.40;;;;;;;11.16;100.00;99993.28;5065639;28;20543;-68
2023/11/20 09:36:42;;;;;;;5.10;2.07;;;;;;;11.28;100.00;99996.03;5094270;28;20432;-67
2023/11/20 09:39:13;;;;;;;2.30;2.10;;;;;;;11.21;100.00;100001.53;5092615;28;20446;-68
2023/11/20 09:41:43;;;;;;;3.80;1.93;;;;;;;11.26;100.00;99993.56;5090429;28;20439;-67
2023/11/20 09:44:12;;;;;;;3.60;2.20;;;;;;;11.37;100.00;99993.84;5091759;28;20424;-68
2023/11/20 09:46:45;;;;;;;2.70;1.20;;;;;;;11.52;100.00;99994.25;5086588;28;20428;-70
2023/11/20 09:49:22;;;;;;;2.13;1.63;;;;;;;11.58;100.00;99994.16;5084140;28;20416;-68
2023/11/20 09:51:55;;;;;;;8.00;1.63;;;;;;;11.89;100.00;99990.38;5079327;28;20400;-69
2023/11/20 09:54:25;;;;;;;2.67;2.03;;;;;;;11.87;100.00;99994.38;5093544;28;20814;-69
2023/11/20 09:56:54;;;;;;;1.97;1.50;;;;;;;11.97;100.00;99994.63;5089846;28;20425;-68
2023/11/20 09:59:25;;;;;;;4.23;1.00;;;;;;;11.96;100.00;99992.97;5084000;28;20415;-69
2023/11/20 10:01:57;;;;;;;2.17;1.27;;;;;;;11.86;100.00;99988.13;5091813;28;20428;-68
2023/11/20 10:04:28;;;;;;;2.07;1.03;;;;;;;11.88;100.00;99988.72;5092965;28;20511;-67
2023/11/20 10:06:58;;;;;;;3.63;1.57;;;;;;;11.91;100.00;99984.75;5093090;28;20399;-69
2023/11/20 10:09:27;;;;;;;1.90;1.40;;;;;;;11.77;100.00;99987.63;5090506;28;20455;-67
2023/11/20 10:11:57;;;;;;;1.60;1.10;;;;;;;11.83;100.00;99982.34;5096213;28;20404;-68
2023/11/20 10:14:26;;;;;;;2.87;1.20;;;;;;;11.86;100.00;99981.91;5095301;28;20444;-66
2023/11/20 10:16:57;;;;;;;2.10;1.10;;;;;;;12.01;100.00;99984.97;5071751;28;20415;-67
2023/11/20 10:19:26;;;;;;;1.67;1.20;;;;;;;12.16;100.00;99983.47;5094909;28;20433;-68
2023/11/20 10:21:58;;;;;;;10.00;1.87;;;;;;;12.46;100.00;99988.78;5094115;28;20435;-68
2023/11/20 10:24:27;;;;;;;2.13;1.73;;;;;;;12.55;100.00;99984.66;5087120;28;20518;-69
2023/11/20 10:26:56;;;;;;;1.77;0.90;;;;;;;12.45;100.00;99986.31;5093520;28;20503;-69
2023/11/20 10:29:25;;;;;;;2.17;1.53;;;;;;;12.44;100.00;99982.75;5094333;28;20898;-68
2023/11/20 10:31:58;;;;;;;2.30;1.03;;;;;;;12.37;100.00;99984.78;5097687;28;20411;-68
2023/11/20 10:34:31;;;;;;;4.37;1.87;;;;;;;12.55;100.00;99992.78;5098452;28;20438;-71
2023/11/20 10:37:09;;;;;;;1.67;1.20;;;;;;;12.35;100.00;99978.75;5098289;28;20522;-69
2023/11/20 10:39:39;;;;;;;1.77;1.03;;;;;;;12.28;100.00;99983.50;5088959;28;20441;-67
2023/11/20 10:42:09;;;;;;;4.30;3.00;;;;;;;12.05;100.00;99986.19;5096021;28;20466;-68
2023/11/20 10:44:38;;;;;;;2.00;1.07;;;;;;;12.11;100.00;99991.47;5094431;28;20820;-69
2023/11/20 10:47:10;;;;;;;2.43;1.43;;;;;;;12.21;100.00;99990.91;5092222;28;20437;-68
2023/11/20 10:49:39;;;;;;;1.70;1.00;;;;;;;11.97;100.00;99981.06;5098351;28;20416;-68
2023/11/20 10:52:25;;;;;;;1.23;0.80;;;;;;;12.07;100.00;99982.16;5098468;28;20399;-70
2023/11/20 10:54:56;;;;;;;3.00;1.30;;;;;;;12.08;100.00;99975.69;5098340;28;20439;-67
2023/11/20 10:57:25;;;;;;;1.40;0.87;;;;;;;12.21;100.00;99980.06;5088851;28;20456;-68
2023/11/20 10:59:56;;;;;;;1.23;0.80;;;;;;;12.34;100.00;99973.59;5098753;28;20396;-71
2023/11/20 11:02:28;;;;;;;1.33;1.20;;;;;;;12.44;100.00;99977.34;5091949;28;20462;-69
2023/11/20 11:05:02;;;;;;;2.30;1.43;;;;;;;12.54;100.00;99984.88;5095895;28;20445;-68
2023/11/20 11:07:31;;;;;;;1.30;0.70;;;;;;;12.47;100.00;99985.03;5089271;28;20404;-68
2023/11/20 11:10:04;;;;;;;1.70;1.30;;;;;;;12.32;100.00;99984.66;5089607;28;20400;-69
2023/11/20 11:12:34;;;;;;;2.10;1.20;;;;;;;12.43;100.00;99986.56;5093379;28;20392;-69
2023/11/20 11:15:03;;;;;;;2.13;1.40;;;;;;;12.29;100.00;99987.84;5093600;28;20448;-69
2023/11/20 11:17:37;;;;;;;2.90;1.47;;;;;;;12.20;100.00;99989.25;5090393;28;20400;-68
2023/11/20 11:20:13;;;;;;;1.83;1.20;;;;;;;12.29;100.00;99981.59;5088760;28;20408;-69
2023/11/20 11:22:44;;;;;;;2.17;1.10;;;;;;;12.14;100.00;99990.19;5100700;28;21001;-69
2023/11/20 11:25:14;;;;;;;1.53;1.03;;;;;;;12.27;100.00;99994.56;5088694;28;20896;-69
2023/11/20 11:27:53;;;;;;;2.00;1.33;;;;;;;12.29;100.00;99987.84;5090426;28;20416;-69
2023/11/20 11:30:24;;;;;;;1.80;1.10;;;;;;;12.28;100.00;99991.63;5091029;28;20507;-68
2023/11/20 11:33:25;;;;;;;1.70;1.23;;;;;;;12.15;100.00;99983.72;5091278;28;20922;-69
2023/11/20 11:36:20;;;;;;;2.10;1.67;;;;;;;12.23;100.00;99977.09;5094608;28;20464;-69
2023/11/20 11:39:15;;;;;;;2.60;1.43;;;;;;;12.50;100.00;99978.28;5092561;28;20424;-68